sensor_id;sensor_type;location;lat;lon;timestamp;P1;durP1;ratioP1;P2;durP2;ratioP2
39448;SDS011;25151;45.566;9.382;2022-07-23T00:01:44;5.45;;;1.67;;
39448;SDS011;25151;45.566;9.382;2022-07-23T00:04:45;5.13;;;1.55;;
39448;SDS011;25151;45.566;9.382;2022-07-23T00:07:45;2.05;;;1.40;;
39448;SDS011;25151;45.566;9.382;2022-07-23T00:10:46;3.65;;;1.80;;
39448;SDS011;25151;45.566;9.382;2022-07-23T00:13:47;2.33;;;1.88;;
39448;SDS011;25151;45.566;9.382;2022-07-23T00:16:47;4.85;;;1.80;;
39448;SDS011;25151;45.566;9.382;2022-07-23T00:19:48;3.63;;;2.03;;
39448;SDS011;25151;45.566;9.382;2022-07-23T00:22:49;6.50;;;1.73;;
39448;SDS011;25151;45.566;9.382;2022-07-23T00:25:51;2.63;;;1.63;;
39448;SDS011;25151;45.566;9.382;2022-07-23T00:28:52;5.30;;;1.60;;
39448;SDS011;25151;45.566;9.382;2022-07-23T00:31:52;2.38;;;1.45;;
39448;SDS011;25151;45.566;9.382;2022-07-23T00:34:53;2.97;;;1.60;;
39448;SDS011;25151;45.566;9.382;2022-07-23T00:37:54;3.67;;;2.15;;
39448;SDS011;25151;45.566;9.382;2022-07-23T00:40:55;3.10;;;1.58;;
39448;SDS011;25151;45.566;9.382;2022-07-23T00:44:13;3.38;;;1.45;;
39448;SDS011;25151;45.566;9.382;2022-07-23T00:47:21;4.13;;;1.90;;
39448;SDS011;25151;45.566;9.382;2022-07-23T00:50:23;4.65;;;1.83;;
39448;SDS011;25151;45.566;9.382;2022-07-23T00:53:24;2.75;;;1.73;;
39448;SDS011;25151;45.566;9.382;2022-07-23T00:56:25;3.03;;;1.50;;
39448;SDS011;25151;45.566;9.382;2022-07-23T00:59:26;2.83;;;1.60;;
39448;SDS011;25151;45.566;9.382;2022-07-23T01:02:27;2.80;;;1.27;;
39448;SDS011;25151;45.566;9.382;2022-07-23T01:05:27;2.50;;;1.60;;
39448;SDS011;25151;45.566;9.382;2022-07-23T01:08:28;2.70;;;1.98;;
39448;SDS011;25151;45.566;9.382;2022-07-23T01:11:29;1.90;;;1.38;;
39448;SDS011;25151;45.566;9.382;2022-07-23T01:14:31;3.05;;;1.60;;
39448;SDS011;25151;45.566;9.382;2022-07-23T01:17:32;3.15;;;1.70;;
39448;SDS011;25151;45.566;9.382;2022-07-23T01:20:32;2.05;;;1.60;;
39448;SDS011;25151;45.566;9.382;2022-07-23T01:23:33;3.38;;;1.75;;
39448;SDS011;25151;45.566;9.382;2022-07-23T01:26:34;3.97;;;2.00;;
39448;SDS011;25151;45.566;9.382;2022-07-23T01:29:35;3.05;;;1.50;;
39448;SDS011;25151;45.566;9.382;2022-07-23T01:32:36;3.17;;;1.50;;
39448;SDS011;25151;45.566;9.382;2022-07-23T01:35:37;5.20;;;1.30;;
39448;SDS011;25151;45.566;9.382;2022-07-23T01:38:37;2.75;;;1.55;;
39448;SDS011;25151;45.566;9.382;2022-07-23T01:41:38;2.28;;;1.70;;
39448;SDS011;25151;45.566;9.382;2022-07-23T01:44:38;1.65;;;1.40;;
39448;SDS011;25151;45.566;9.382;2022-07-23T01:47:39;2.90;;;1.65;;
39448;SDS011;25151;45.566;9.382;2022-07-23T01:50:40;3.63;;;1.95;;
39448;SDS011;25151;45.566;9.382;2022-07-23T01:53:40;2.67;;;1.65;;
39448;SDS011;25151;45.566;9.382;2022-07-23T01:56:41;2.63;;;1.77;;
39448;SDS011;25151;45.566;9.382;2022-07-23T01:59:44;2.72;;;1.50;;
39448;SDS011;25151;45.566;9.382;2022-07-23T02:02:45;3.83;;;1.60;;
39448;SDS011;25151;45.566;9.382;2022-07-23T02:05:45;2.22;;;1.42;;
39448;SDS011;25151;45.566;9.382;2022-07-23T02:08:46;3.92;;;1.85;;
39448;SDS011;25151;45.566;9.382;2022-07-23T02:11:47;3.17;;;1.52;;
39448;SDS011;25151;45.566;9.382;2022-07-23T02:14:47;2.42;;;1.58;;
39448;SDS011;25151;45.566;9.382;2022-07-23T02:17:48;2.50;;;1.70;;
39448;SDS011;25151;45.566;9.382;2022-07-23T02:20:49;4.18;;;1.55;;
39448;SDS011;25151;45.566;9.382;2022-07-23T02:23:49;2.20;;;1.40;;
39448;SDS011;25151;45.566;9.382;2022-07-23T02:26:50;1.70;;;1.50;;
39448;SDS011;25151;45.566;9.382;2022-07-23T02:29:51;2.20;;;1.70;;
39448;SDS011;25151;45.566;9.382;2022-07-23T02:32:51;2.45;;;1.60;;
39448;SDS011;25151;45.566;9.382;2022-07-23T02:35:52;2.40;;;1.65;;
39448;SDS011;25151;45.566;9.382;2022-07-23T02:38:54;2.17;;;1.42;;
39448;SDS011;25151;45.566;9.382;2022-07-23T02:41:55;2.75;;;1.48;;
39448;SDS011;25151;45.566;9.382;2022-07-23T02:44:56;1.80;;;1.23;;
39448;SDS011;25151;45.566;9.382;2022-07-23T02:47:56;2.00;;;1.27;;
39448;SDS011;25151;45.566;9.382;2022-07-23T02:50:57;2.67;;;1.45;;
39448;SDS011;25151;45.566;9.382;2022-07-23T02:53:58;3.28;;;1.50;;
39448;SDS011;25151;45.566;9.382;2022-07-23T02:56:58;1.95;;;1.30;;
39448;SDS011;25151;45.566;9.382;2022-07-23T02:59:59;4.50;;;2.00;;
39448;SDS011;25151;45.566;9.382;2022-07-23T03:02:59;2.65;;;1.40;;
39448;SDS011;25151;45.566;9.382;2022-07-23T03:06:00;4.22;;;1.30;;
39448;SDS011;25151;45.566;9.382;2022-07-23T03:09:01;2.08;;;1.40;;
39448;SDS011;25151;45.566;9.382;2022-07-23T03:12:03;2.65;;;1.48;;
39448;SDS011;25151;45.566;9.382;2022-07-23T03:15:04;2.70;;;1.45;;
39448;SDS011;25151;45.566;9.382;2022-07-23T03:18:05;2.47;;;1.70;;
39448;SDS011;25151;45.566;9.382;2022-07-23T03:21:06;2.33;;;1.58;;
39448;SDS011;25151;45.566;9.382;2022-07-23T03:24:08;2.17;;;1.60;;
39448;SDS011;25151;45.566;9.382;2022-07-23T03:27:09;2.65;;;1.52;;
39448;SDS011;25151;45.566;9.382;2022-07-23T03:30:10;2.13;;;1.42;;
39448;SDS011;25151;45.566;9.382;2022-07-23T03:33:13;1.98;;;1.38;;
39448;SDS011;25151;45.566;9.382;2022-07-23T03:36:14;3.28;;;1.38;;
39448;SDS011;25151;45.566;9.382;2022-07-23T03:39:14;2.72;;;1.88;;
39448;SDS011;25151;45.566;9.382;2022-07-23T03:42:15;1.70;;;1.40;;
39448;SDS011;25151;45.566;9.382;2022-07-23T03:45:16;2.97;;;1.50;;
39448;SDS011;25151;45.566;9.382;2022-07-23T03:48:16;2.53;;;1.45;;
39448;SDS011;25151;45.566;9.382;2022-07-23T03:51:17;2.47;;;1.75;;
39448;SDS011;25151;45.566;9.382;2022-07-23T03:54:18;2.20;;;1.40;;
39448;SDS011;25151;45.566;9.382;2022-07-23T03:57:18;2.97;;;1.90;;
39448;SDS011;25151;45.566;9.382;2022-07-23T04:00:19;2.67;;;1.50;;
39448;SDS011;25151;45.566;9.382;2022-07-23T04:03:20;4.05;;;1.60;;
39448;SDS011;25151;45.566;9.382;2022-07-23T04:06:20;3.95;;;1.30;;
39448;SDS011;25151;45.566;9.382;2022-07-23T04:09:21;4.13;;;1.65;;
39448;SDS011;25151;45.566;9.382;2022-07-23T04:12:22;2.33;;;1.60;;
39448;SDS011;25151;45.566;9.382;2022-07-23T04:15:24;2.97;;;1.70;;
39448;SDS011;25151;45.566;9.382;2022-07-23T04:18:25;5.32;;;1.70;;
39448;SDS011;25151;45.566;9.382;2022-07-23T04:21:26;4.30;;;1.75;;
39448;SDS011;25151;45.566;9.382;2022-07-23T04:24:26;4.43;;;1.73;;
39448;SDS011;25151;45.566;9.382;2022-07-23T04:27:27;1.98;;;1.33;;
39448;SDS011;25151;45.566;9.382;2022-07-23T04:30:28;2.30;;;1.45;;
39448;SDS011;25151;45.566;9.382;2022-07-23T04:33:28;2.95;;;1.70;;
39448;SDS011;25151;45.566;9.382;2022-07-23T04:36:29;3.75;;;1.70;;
39448;SDS011;25151;45.566;9.382;2022-07-23T04:39:31;2.15;;;1.20;;
39448;SDS011;25151;45.566;9.382;2022-07-23T04:42:32;2.38;;;1.65;;
39448;SDS011;25151;45.566;9.382;2022-07-23T04:45:34;1.90;;;1.40;;
39448;SDS011;25151;45.566;9.382;2022-07-23T04:48:35;2.10;;;1.30;;
39448;SDS011;25151;45.566;9.382;2022-07-23T04:51:36;3.28;;;1.40;;
39448;SDS011;25151;45.566;9.382;2022-07-23T04:54:36;2.08;;;1.70;;
39448;SDS011;25151;45.566;9.382;2022-07-23T04:57:37;1.70;;;1.35;;
39448;SDS011;25151;45.566;9.382;2022-07-23T05:00:38;1.48;;;1.33;;
39448;SDS011;25151;45.566;9.382;2022-07-23T05:03:41;1.85;;;1.55;;
39448;SDS011;25151;45.566;9.382;2022-07-23T05:06:43;2.95;;;1.60;;
39448;SDS011;25151;45.566;9.382;2022-07-23T05:09:44;3.08;;;1.70;;
39448;SDS011;25151;45.566;9.382;2022-07-23T05:12:45;4.00;;;1.58;;
39448;SDS011;25151;45.566;9.382;2022-07-23T05:15:46;3.80;;;1.50;;
39448;SDS011;25151;45.566;9.382;2022-07-23T05:18:47;2.55;;;1.40;;
39448;SDS011;25151;45.566;9.382;2022-07-23T05:22:13;2.25;;;1.80;;
39448;SDS011;25151;45.566;9.382;2022-07-23T05:25:14;4.38;;;1.42;;
39448;SDS011;25151;45.566;9.382;2022-07-23T05:28:24;2.25;;;1.35;;
39448;SDS011;25151;45.566;9.382;2022-07-23T05:31:24;2.22;;;1.60;;
39448;SDS011;25151;45.566;9.382;2022-07-23T05:34:25;3.13;;;1.40;;
39448;SDS011;25151;45.566;9.382;2022-07-23T05:37:44;3.55;;;1.70;;
39448;SDS011;25151;45.566;9.382;2022-07-23T05:40:53;4.50;;;1.40;;
39448;SDS011;25151;45.566;9.382;2022-07-23T05:43:55;3.40;;;1.60;;
39448;SDS011;25151;45.566;9.382;2022-07-23T05:47:01;4.82;;;1.90;;
39448;SDS011;25151;45.566;9.382;2022-07-23T05:50:03;9.45;;;1.52;;
39448;SDS011;25151;45.566;9.382;2022-07-23T05:53:27;5.03;;;1.83;;
39448;SDS011;25151;45.566;9.382;2022-07-23T05:56:28;4.32;;;1.60;;
39448;SDS011;25151;45.566;9.382;2022-07-23T05:59:29;3.42;;;1.33;;
39448;SDS011;25151;45.566;9.382;2022-07-23T06:02:30;5.93;;;1.50;;
39448;SDS011;25151;45.566;9.382;2022-07-23T06:05:38;5.68;;;1.83;;
39448;SDS011;25151;45.566;9.382;2022-07-23T06:08:38;2.58;;;1.80;;
39448;SDS011;25151;45.566;9.382;2022-07-23T06:11:39;3.72;;;1.77;;
39448;SDS011;25151;45.566;9.382;2022-07-23T06:14:41;2.30;;;1.42;;
39448;SDS011;25151;45.566;9.382;2022-07-23T06:17:45;4.60;;;1.63;;
39448;SDS011;25151;45.566;9.382;2022-07-23T06:20:46;5.85;;;1.70;;
39448;SDS011;25151;45.566;9.382;2022-07-23T06:23:47;4.38;;;1.70;;
39448;SDS011;25151;45.566;9.382;2022-07-23T06:26:50;4.45;;;1.90;;
39448;SDS011;25151;45.566;9.382;2022-07-23T06:29:52;4.97;;;1.50;;
39448;SDS011;25151;45.566;9.382;2022-07-23T06:32:54;7.40;;;1.80;;
39448;SDS011;25151;45.566;9.382;2022-07-23T06:39:24;5.57;;;1.98;;
39448;SDS011;25151;45.566;9.382;2022-07-23T06:47:23;7.65;;;1.90;;
39448;SDS011;25151;45.566;9.382;2022-07-23T06:58:28;4.80;;;1.92;;
39448;SDS011;25151;45.566;9.382;2022-07-23T07:01:30;6.40;;;1.80;;
39448;SDS011;25151;45.566;9.382;2022-07-23T07:04:31;4.90;;;1.65;;
39448;SDS011;25151;45.566;9.382;2022-07-23T07:07:32;7.00;;;2.13;;
39448;SDS011;25151;45.566;9.382;2022-07-23T07:13:49;5.97;;;2.25;;
39448;SDS011;25151;45.566;9.382;2022-07-23T07:25:01;3.35;;;1.95;;
39448;SDS011;25151;45.566;9.382;2022-07-23T07:33:32;2.75;;;1.75;;
39448;SDS011;25151;45.566;9.382;2022-07-23T07:36:33;6.72;;;2.33;;
39448;SDS011;25151;45.566;9.382;2022-07-23T07:39:40;2.58;;;1.30;;
39448;SDS011;25151;45.566;9.382;2022-07-23T07:42:46;6.60;;;1.98;;
39448;SDS011;25151;45.566;9.382;2022-07-23T07:45:48;4.60;;;2.10;;
39448;SDS011;25151;45.566;9.382;2022-07-23T07:48:49;3.40;;;1.45;;
39448;SDS011;25151;45.566;9.382;2022-07-23T07:51:50;4.30;;;1.80;;
39448;SDS011;25151;45.566;9.382;2022-07-23T07:54:52;2.38;;;1.50;;
39448;SDS011;25151;45.566;9.382;2022-07-23T07:57:53;3.28;;;1.80;;
39448;SDS011;25151;45.566;9.382;2022-07-23T08:01:00;3.03;;;1.48;;
39448;SDS011;25151;45.566;9.382;2022-07-23T08:04:02;5.00;;;1.70;;
39448;SDS011;25151;45.566;9.382;2022-07-23T08:07:03;3.60;;;1.45;;
39448;SDS011;25151;45.566;9.382;2022-07-23T08:10:04;4.85;;;1.80;;
39448;SDS011;25151;45.566;9.382;2022-07-23T08:13:06;5.15;;;2.03;;
39448;SDS011;25151;45.566;9.382;2022-07-23T08:16:07;5.53;;;1.58;;
39448;SDS011;25151;45.566;9.382;2022-07-23T08:19:08;4.55;;;2.10;;
39448;SDS011;25151;45.566;9.382;2022-07-23T08:22:08;7.63;;;1.90;;
39448;SDS011;25151;45.566;9.382;2022-07-23T08:25:13;3.85;;;1.65;;
39448;SDS011;25151;45.566;9.382;2022-07-23T08:28:22;8.30;;;2.03;;
39448;SDS011;25151;45.566;9.382;2022-07-23T08:31:23;3.88;;;1.67;;
39448;SDS011;25151;45.566;9.382;2022-07-23T08:34:24;3.83;;;1.77;;
39448;SDS011;25151;45.566;9.382;2022-07-23T08:37:25;4.35;;;1.88;;
39448;SDS011;25151;45.566;9.382;2022-07-23T08:40:28;5.30;;;2.70;;
39448;SDS011;25151;45.566;9.382;2022-07-23T08:43:31;3.03;;;2.00;;
39448;SDS011;25151;45.566;9.382;2022-07-23T08:46:34;8.05;;;1.90;;
39448;SDS011;25151;45.566;9.382;2022-07-23T08:50:00;5.03;;;1.50;;
39448;SDS011;25151;45.566;9.382;2022-07-23T08:53:03;5.85;;;1.77;;
39448;SDS011;25151;45.566;9.382;2022-07-23T08:56:14;6.95;;;1.98;;
39448;SDS011;25151;45.566;9.382;2022-07-23T08:59:15;7.00;;;1.75;;
39448;SDS011;25151;45.566;9.382;2022-07-23T09:02:59;5.25;;;1.70;;
39448;SDS011;25151;45.566;9.382;2022-07-23T09:06:00;5.90;;;1.90;;
39448;SDS011;25151;45.566;9.382;2022-07-23T09:09:15;3.53;;;2.00;;
39448;SDS011;25151;45.566;9.382;2022-07-23T09:12:18;2.95;;;1.65;;
39448;SDS011;25151;45.566;9.382;2022-07-23T09:19:51;4.43;;;1.73;;
39448;SDS011;25151;45.566;9.382;2022-07-23T09:22:51;6.70;;;1.75;;
39448;SDS011;25151;45.566;9.382;2022-07-23T09:25:55;4.30;;;1.92;;
39448;SDS011;25151;45.566;9.382;2022-07-23T09:29:16;6.97;;;2.28;;
39448;SDS011;25151;45.566;9.382;2022-07-23T09:32:25;3.35;;;1.60;;
39448;SDS011;25151;45.566;9.382;2022-07-23T09:38:50;5.60;;;2.08;;
39448;SDS011;25151;45.566;9.382;2022-07-23T09:41:51;4.97;;;2.08;;
39448;SDS011;25151;45.566;9.382;2022-07-23T09:44:53;6.40;;;1.52;;
39448;SDS011;25151;45.566;9.382;2022-07-23T09:48:10;3.97;;;1.63;;
39448;SDS011;25151;45.566;9.382;2022-07-23T09:51:13;5.65;;;1.80;;
39448;SDS011;25151;45.566;9.382;2022-07-23T09:54:23;4.75;;;1.40;;
39448;SDS011;25151;45.566;9.382;2022-07-23T09:57:26;6.10;;;2.85;;
39448;SDS011;25151;45.566;9.382;2022-07-23T10:00:28;5.22;;;2.22;;
39448;SDS011;25151;45.566;9.382;2022-07-23T10:03:31;4.35;;;1.73;;
39448;SDS011;25151;45.566;9.382;2022-07-23T10:06:35;5.47;;;1.90;;
39448;SDS011;25151;45.566;9.382;2022-07-23T10:09:39;6.20;;;2.03;;
39448;SDS011;25151;45.566;9.382;2022-07-23T10:12:43;5.95;;;2.10;;
39448;SDS011;25151;45.566;9.382;2022-07-23T10:16:05;9.20;;;2.38;;
39448;SDS011;25151;45.566;9.382;2022-07-23T10:19:33;4.28;;;1.80;;
39448;SDS011;25151;45.566;9.382;2022-07-23T10:22:38;4.25;;;2.40;;
39448;SDS011;25151;45.566;9.382;2022-07-23T10:32:32;5.97;;;2.67;;
39448;SDS011;25151;45.566;9.382;2022-07-23T10:35:57;6.35;;;2.83;;
39448;SDS011;25151;45.566;9.382;2022-07-23T10:42:33;4.38;;;2.33;;
39448;SDS011;25151;45.566;9.382;2022-07-23T10:45:36;4.70;;;2.38;;
39448;SDS011;25151;45.566;9.382;2022-07-23T10:48:37;4.85;;;2.70;;
39448;SDS011;25151;45.566;9.382;2022-07-23T10:51:38;9.05;;;3.13;;
39448;SDS011;25151;45.566;9.382;2022-07-23T10:58:10;12.80;;;2.70;;
39448;SDS011;25151;45.566;9.382;2022-07-23T11:04:50;7.68;;;2.38;;
39448;SDS011;25151;45.566;9.382;2022-07-23T11:11:08;7.80;;;2.47;;
39448;SDS011;25151;45.566;9.382;2022-07-23T11:14:10;10.25;;;2.78;;
39448;SDS011;25151;45.566;9.382;2022-07-23T11:17:18;7.70;;;2.60;;
39448;SDS011;25151;45.566;9.382;2022-07-23T11:20:21;7.35;;;2.58;;
39448;SDS011;25151;45.566;9.382;2022-07-23T11:23:23;7.20;;;2.00;;
39448;SDS011;25151;45.566;9.382;2022-07-23T11:27:00;7.70;;;2.60;;
39448;SDS011;25151;45.566;9.382;2022-07-23T11:30:01;6.78;;;2.38;;
39448;SDS011;25151;45.566;9.382;2022-07-23T11:36:09;5.80;;;2.35;;
39448;SDS011;25151;45.566;9.382;2022-07-23T11:39:10;8.07;;;2.67;;
39448;SDS011;25151;45.566;9.382;2022-07-23T11:42:16;8.02;;;2.80;;
39448;SDS011;25151;45.566;9.382;2022-07-23T11:45:20;7.18;;;2.50;;
39448;SDS011;25151;45.566;9.382;2022-07-23T11:48:25;4.85;;;2.42;;
39448;SDS011;25151;45.566;9.382;2022-07-23T11:51:27;7.07;;;2.92;;
39448;SDS011;25151;45.566;9.382;2022-07-23T11:54:28;6.72;;;2.80;;
39448;SDS011;25151;45.566;9.382;2022-07-23T11:57:31;8.32;;;2.60;;
39448;SDS011;25151;45.566;9.382;2022-07-23T12:00:33;7.25;;;2.47;;
39448;SDS011;25151;45.566;9.382;2022-07-23T12:03:34;10.77;;;3.17;;
39448;SDS011;25151;45.566;9.382;2022-07-23T12:06:37;4.93;;;2.53;;
39448;SDS011;25151;45.566;9.382;2022-07-23T12:09:38;7.72;;;2.17;;
39448;SDS011;25151;45.566;9.382;2022-07-23T12:12:54;9.90;;;2.38;;
39448;SDS011;25151;45.566;9.382;2022-07-23T12:15:57;6.07;;;2.28;;
39448;SDS011;25151;45.566;9.382;2022-07-23T12:19:01;7.95;;;3.13;;
39448;SDS011;25151;45.566;9.382;2022-07-23T12:22:03;5.97;;;2.40;;
39448;SDS011;25151;45.566;9.382;2022-07-23T12:25:06;7.22;;;2.88;;
39448;SDS011;25151;45.566;9.382;2022-07-23T12:28:14;6.68;;;2.47;;
39448;SDS011;25151;45.566;9.382;2022-07-23T12:31:17;6.32;;;2.70;;
39448;SDS011;25151;45.566;9.382;2022-07-23T12:34:28;6.10;;;2.50;;
39448;SDS011;25151;45.566;9.382;2022-07-23T12:37:36;9.02;;;3.03;;
39448;SDS011;25151;45.566;9.382;2022-07-23T12:40:55;8.73;;;2.85;;
39448;SDS011;25151;45.566;9.382;2022-07-23T12:44:08;7.75;;;2.47;;
39448;SDS011;25151;45.566;9.382;2022-07-23T12:47:14;6.90;;;2.83;;
39448;SDS011;25151;45.566;9.382;2022-07-23T12:54:03;4.05;;;2.45;;
39448;SDS011;25151;45.566;9.382;2022-07-23T12:57:06;4.78;;;2.67;;
39448;SDS011;25151;45.566;9.382;2022-07-23T13:00:08;5.95;;;2.25;;
39448;SDS011;25151;45.566;9.382;2022-07-23T13:03:19;6.88;;;2.38;;
39448;SDS011;25151;45.566;9.382;2022-07-23T13:06:32;5.20;;;1.92;;
39448;SDS011;25151;45.566;9.382;2022-07-23T13:09:37;5.78;;;2.25;;
39448;SDS011;25151;45.566;9.382;2022-07-23T13:12:41;7.10;;;2.60;;
39448;SDS011;25151;45.566;9.382;2022-07-23T13:15:42;3.75;;;2.47;;
39448;SDS011;25151;45.566;9.382;2022-07-23T13:18:43;5.93;;;2.45;;
39448;SDS011;25151;45.566;9.382;2022-07-23T13:21:44;5.78;;;2.63;;
39448;SDS011;25151;45.566;9.382;2022-07-23T13:24:45;5.95;;;2.67;;
39448;SDS011;25151;45.566;9.382;2022-07-23T13:27:46;6.95;;;2.28;;
39448;SDS011;25151;45.566;9.382;2022-07-23T13:30:47;5.30;;;2.50;;
39448;SDS011;25151;45.566;9.382;2022-07-23T13:33:49;4.70;;;1.95;;
39448;SDS011;25151;45.566;9.382;2022-07-23T13:36:50;7.57;;;2.50;;
39448;SDS011;25151;45.566;9.382;2022-07-23T13:39:51;3.95;;;2.28;;
39448;SDS011;25151;45.566;9.382;2022-07-23T13:42:52;4.78;;;2.15;;
39448;SDS011;25151;45.566;9.382;2022-07-23T13:45:52;4.22;;;2.53;;
39448;SDS011;25151;45.566;9.382;2022-07-23T13:48:53;2.90;;;2.15;;
39448;SDS011;25151;45.566;9.382;2022-07-23T13:51:54;4.68;;;2.55;;
39448;SDS011;25151;45.566;9.382;2022-07-23T13:54:55;3.45;;;2.33;;
39448;SDS011;25151;45.566;9.382;2022-07-23T13:57:57;8.85;;;2.60;;
39448;SDS011;25151;45.566;9.382;2022-07-23T14:00:58;4.57;;;2.35;;
39448;SDS011;25151;45.566;9.382;2022-07-23T14:03:59;4.55;;;2.25;;
39448;SDS011;25151;45.566;9.382;2022-07-23T14:07:00;5.18;;;2.15;;
39448;SDS011;25151;45.566;9.382;2022-07-23T14:10:03;6.32;;;2.53;;
39448;SDS011;25151;45.566;9.382;2022-07-23T14:13:04;5.22;;;2.30;;
39448;SDS011;25151;45.566;9.382;2022-07-23T14:16:05;5.68;;;2.35;;
39448;SDS011;25151;45.566;9.382;2022-07-23T14:19:06;4.68;;;2.35;;
39448;SDS011;25151;45.566;9.382;2022-07-23T14:22:07;4.45;;;2.10;;
39448;SDS011;25151;45.566;9.382;2022-07-23T14:25:08;8.60;;;2.17;;
39448;SDS011;25151;45.566;9.382;2022-07-23T14:28:09;9.02;;;2.97;;
39448;SDS011;25151;45.566;9.382;2022-07-23T14:31:11;6.43;;;2.33;;
39448;SDS011;25151;45.566;9.382;2022-07-23T14:34:12;6.75;;;2.50;;
39448;SDS011;25151;45.566;9.382;2022-07-23T14:37:13;7.25;;;2.05;;
39448;SDS011;25151;45.566;9.382;2022-07-23T14:40:13;7.05;;;2.50;;
39448;SDS011;25151;45.566;9.382;2022-07-23T14:43:14;3.97;;;2.13;;
39448;SDS011;25151;45.566;9.382;2022-07-23T14:46:15;5.43;;;2.40;;
39448;SDS011;25151;45.566;9.382;2022-07-23T14:49:16;6.53;;;2.35;;
39448;SDS011;25151;45.566;9.382;2022-07-23T14:52:16;6.43;;;2.33;;
39448;SDS011;25151;45.566;9.382;2022-07-23T14:55:17;9.10;;;2.53;;
39448;SDS011;25151;45.566;9.382;2022-07-23T14:58:18;5.47;;;2.75;;
39448;SDS011;25151;45.566;9.382;2022-07-23T15:01:19;7.68;;;2.35;;
39448;SDS011;25151;45.566;9.382;2022-07-23T15:04:20;5.38;;;2.38;;
39448;SDS011;25151;45.566;9.382;2022-07-23T15:07:21;8.82;;;2.80;;
39448;SDS011;25151;45.566;9.382;2022-07-23T15:10:34;10.30;;;2.65;;
39448;SDS011;25151;45.566;9.382;2022-07-23T15:13:36;4.80;;;2.78;;
39448;SDS011;25151;45.566;9.382;2022-07-23T15:16:38;4.88;;;2.20;;
39448;SDS011;25151;45.566;9.382;2022-07-23T15:19:42;9.30;;;3.05;;
39448;SDS011;25151;45.566;9.382;2022-07-23T15:22:45;4.72;;;2.50;;
39448;SDS011;25151;45.566;9.382;2022-07-23T15:25:48;5.78;;;2.60;;
39448;SDS011;25151;45.566;9.382;2022-07-23T15:28:48;5.60;;;2.42;;
39448;SDS011;25151;45.566;9.382;2022-07-23T15:31:49;16.08;;;2.92;;
39448;SDS011;25151;45.566;9.382;2022-07-23T15:34:50;10.10;;;2.53;;
39448;SDS011;25151;45.566;9.382;2022-07-23T15:37:51;8.00;;;2.78;;
39448;SDS011;25151;45.566;9.382;2022-07-23T15:40:55;9.00;;;2.13;;
39448;SDS011;25151;45.566;9.382;2022-07-23T15:44:04;4.70;;;2.20;;
39448;SDS011;25151;45.566;9.382;2022-07-23T15:47:07;5.30;;;2.72;;
39448;SDS011;25151;45.566;9.382;2022-07-23T15:50:12;4.22;;;2.20;;
39448;SDS011;25151;45.566;9.382;2022-07-23T15:53:13;5.80;;;2.65;;
39448;SDS011;25151;45.566;9.382;2022-07-23T15:56:13;7.43;;;2.58;;
39448;SDS011;25151;45.566;9.382;2022-07-23T15:59:14;3.75;;;2.25;;
39448;SDS011;25151;45.566;9.382;2022-07-23T16:02:15;4.82;;;2.30;;
39448;SDS011;25151;45.566;9.382;2022-07-23T16:05:16;3.45;;;2.05;;
39448;SDS011;25151;45.566;9.382;2022-07-23T16:08:20;5.45;;;2.45;;
39448;SDS011;25151;45.566;9.382;2022-07-23T16:11:21;5.93;;;2.28;;
39448;SDS011;25151;45.566;9.382;2022-07-23T16:14:21;7.40;;;2.63;;
39448;SDS011;25151;45.566;9.382;2022-07-23T16:17:25;3.55;;;2.20;;
39448;SDS011;25151;45.566;9.382;2022-07-23T16:20:28;5.60;;;2.45;;
39448;SDS011;25151;45.566;9.382;2022-07-23T16:23:29;2.83;;;1.90;;
39448;SDS011;25151;45.566;9.382;2022-07-23T16:26:39;6.95;;;2.40;;
39448;SDS011;25151;45.566;9.382;2022-07-23T16:29:39;10.53;;;3.10;;
39448;SDS011;25151;45.566;9.382;2022-07-23T16:32:41;6.82;;;2.40;;
39448;SDS011;25151;45.566;9.382;2022-07-23T16:35:42;2.88;;;1.92;;
39448;SDS011;25151;45.566;9.382;2022-07-23T16:38:43;5.35;;;2.35;;
39448;SDS011;25151;45.566;9.382;2022-07-23T16:41:47;3.78;;;2.30;;
39448;SDS011;25151;45.566;9.382;2022-07-23T16:44:48;6.30;;;2.20;;
39448;SDS011;25151;45.566;9.382;2022-07-23T16:47:48;7.68;;;2.15;;
39448;SDS011;25151;45.566;9.382;2022-07-23T16:50:50;3.90;;;2.22;;
39448;SDS011;25151;45.566;9.382;2022-07-23T16:53:57;6.28;;;2.20;;
39448;SDS011;25151;45.566;9.382;2022-07-23T16:56:58;10.00;;;2.42;;
39448;SDS011;25151;45.566;9.382;2022-07-23T16:59:59;5.25;;;2.40;;
39448;SDS011;25151;45.566;9.382;2022-07-23T17:02:59;5.78;;;2.35;;
39448;SDS011;25151;45.566;9.382;2022-07-23T17:06:01;6.30;;;2.38;;
39448;SDS011;25151;45.566;9.382;2022-07-23T17:09:02;3.83;;;2.10;;
39448;SDS011;25151;45.566;9.382;2022-07-23T17:12:04;6.15;;;2.83;;
39448;SDS011;25151;45.566;9.382;2022-07-23T17:15:05;3.50;;;2.38;;
39448;SDS011;25151;45.566;9.382;2022-07-23T17:18:06;4.95;;;2.15;;
39448;SDS011;25151;45.566;9.382;2022-07-23T17:21:07;3.13;;;2.38;;
39448;SDS011;25151;45.566;9.382;2022-07-23T17:24:15;9.40;;;3.83;;
39448;SDS011;25151;45.566;9.382;2022-07-23T17:27:16;4.88;;;2.90;;
39448;SDS011;25151;45.566;9.382;2022-07-23T17:30:16;5.82;;;2.90;;
39448;SDS011;25151;45.566;9.382;2022-07-23T17:33:19;3.80;;;2.72;;
39448;SDS011;25151;45.566;9.382;2022-07-23T17:36:20;4.05;;;2.53;;
39448;SDS011;25151;45.566;9.382;2022-07-23T17:39:22;2.95;;;2.63;;
39448;SDS011;25151;45.566;9.382;2022-07-23T17:42:23;3.20;;;2.58;;
39448;SDS011;25151;45.566;9.382;2022-07-23T17:45:24;4.53;;;2.75;;
39448;SDS011;25151;45.566;9.382;2022-07-23T17:48:25;5.57;;;2.67;;
39448;SDS011;25151;45.566;9.382;2022-07-23T17:51:26;6.53;;;2.92;;
39448;SDS011;25151;45.566;9.382;2022-07-23T17:54:27;4.95;;;2.92;;
39448;SDS011;25151;45.566;9.382;2022-07-23T17:57:27;8.20;;;3.20;;
39448;SDS011;25151;45.566;9.382;2022-07-23T18:00:30;5.13;;;3.10;;
39448;SDS011;25151;45.566;9.382;2022-07-23T18:03:33;4.63;;;2.75;;
39448;SDS011;25151;45.566;9.382;2022-07-23T18:06:36;7.72;;;3.20;;
39448;SDS011;25151;45.566;9.382;2022-07-23T18:09:41;8.55;;;2.58;;
39448;SDS011;25151;45.566;9.382;2022-07-23T18:12:42;8.82;;;2.90;;
39448;SDS011;25151;45.566;9.382;2022-07-23T18:15:43;5.10;;;2.90;;
39448;SDS011;25151;45.566;9.382;2022-07-23T18:18:44;6.00;;;2.53;;
39448;SDS011;25151;45.566;9.382;2022-07-23T18:21:45;5.78;;;2.97;;
39448;SDS011;25151;45.566;9.382;2022-07-23T18:24:46;5.88;;;3.38;;
39448;SDS011;25151;45.566;9.382;2022-07-23T18:27:46;4.38;;;2.53;;
39448;SDS011;25151;45.566;9.382;2022-07-23T18:30:47;5.22;;;2.63;;
39448;SDS011;25151;45.566;9.382;2022-07-23T18:33:48;5.50;;;3.13;;
39448;SDS011;25151;45.566;9.382;2022-07-23T18:36:48;4.60;;;2.88;;
39448;SDS011;25151;45.566;9.382;2022-07-23T18:39:49;5.70;;;3.08;;
39448;SDS011;25151;45.566;9.382;2022-07-23T18:42:53;4.93;;;2.60;;
39448;SDS011;25151;45.566;9.382;2022-07-23T18:45:55;5.57;;;2.50;;
39448;SDS011;25151;45.566;9.382;2022-07-23T18:48:57;5.93;;;2.53;;
39448;SDS011;25151;45.566;9.382;2022-07-23T18:51:58;6.25;;;2.83;;
39448;SDS011;25151;45.566;9.382;2022-07-23T18:54:59;7.32;;;2.92;;
39448;SDS011;25151;45.566;9.382;2022-07-23T18:58:00;4.38;;;2.65;;
39448;SDS011;25151;45.566;9.382;2022-07-23T19:01:04;6.95;;;2.95;;
39448;SDS011;25151;45.566;9.382;2022-07-23T19:04:14;4.38;;;2.33;;
39448;SDS011;25151;45.566;9.382;2022-07-23T19:07:15;6.68;;;3.08;;
39448;SDS011;25151;45.566;9.382;2022-07-23T19:10:16;4.40;;;2.20;;
39448;SDS011;25151;45.566;9.382;2022-07-23T19:13:17;7.68;;;2.75;;
39448;SDS011;25151;45.566;9.382;2022-07-23T19:16:18;8.75;;;2.83;;
39448;SDS011;25151;45.566;9.382;2022-07-23T19:19:19;3.15;;;2.30;;
39448;SDS011;25151;45.566;9.382;2022-07-23T19:22:19;6.05;;;2.53;;
39448;SDS011;25151;45.566;9.382;2022-07-23T19:25:21;5.68;;;2.90;;
39448;SDS011;25151;45.566;9.382;2022-07-23T19:28:22;3.90;;;2.58;;
39448;SDS011;25151;45.566;9.382;2022-07-23T19:31:22;5.57;;;2.92;;